Time;durP1;ratioP1;P1;durP2;ratioP2;P2;SDS_P1;SDS_P2;PMS_P1;PMS_P2;Temp;Humidity;BMP_temperature;BMP_pressure;BME280_temperature;BME280_humidity;BME280_pressure;Samples;Min_cycle;Max_cycle;Signal;HPM_P1;HPM_P2
2022/09/01 00:01:36;;;;;;;0.50;0.50;;;19.60;57.50;;;;;;5034093;28;20032;-72
2022/09/01 00:04:03;;;;;;;0.32;0.32;;;19.50;57.50;;;;;;5014608;28;20079;-72
2022/09/01 00:06:31;;;;;;;0.43;0.43;;;19.50;57.60;;;;;;5011400;28;20051;-72
2022/09/01 00:09:01;;;;;;;0.75;0.60;;;19.50;57.70;;;;;;5017320;28;20590;-66
2022/09/01 00:11:28;;;;;;;0.40;0.40;;;19.50;57.70;;;;;;5035570;28;20049;-72
2022/09/01 00:13:55;;;;;;;0.68;0.68;;;19.50;57.70;;;;;;5029060;28;20033;-71
2022/09/01 00:16:21;;;;;;;0.50;0.50;;;19.50;57.70;;;;;;5011427;28;20064;-67
2022/09/01 00:18:50;;;;;;;1.65;0.65;;;19.50;57.70;;;;;;5029077;28;20520;-70
2022/09/01 00:21:23;;;;;;;1.17;0.43;;;19.50;57.80;;;;;;5029097;28;20029;-71
2022/09/01 00:23:48;;;;;;;0.50;0.50;;;19.50;57.90;;;;;;5030271;28;20472;-71
2022/09/01 00:26:14;;;;;;;0.40;0.40;;;19.40;57.90;;;;;;5032615;28;20025;-67
2022/09/01 00:28:40;;;;;;;0.50;0.50;;;19.40;58.00;;;;;;5015550;28;20400;-67
2022/09/01 00:31:06;;;;;;;0.95;0.75;;;19.40;58.00;;;;;;5032856;28;20132;-67
2022/09/01 00:33:34;;;;;;;0.30;0.30;;;19.40;58.10;;;;;;5038602;28;20044;-66
2022/09/01 00:36:00;;;;;;;1.65;0.70;;;19.30;58.00;;;;;;4997636;28;20033;-66
2022/09/01 00:38:26;;;;;;;0.45;0.40;;;19.30;58.20;;;;;;5043044;28;20061;-66
2022/09/01 00:40:52;;;;;;;0.52;0.50;;;19.30;58.30;;;;;;5032490;28;20025;-68
2022/09/01 00:43:38;;;;;;;0.45;0.45;;;19.20;58.20;;;;;;4998062;28;20489;-66
2022/09/01 00:46:06;;;;;;;1.52;0.82;;;19.30;58.30;;;;;;5032467;28;20587;-67
2022/09/01 00:48:32;;;;;;;0.73;0.73;;;19.20;58.40;;;;;;5032889;28;20022;-72
2022/09/01 00:50:59;;;;;;;0.38;0.35;;;19.20;58.50;;;;;;5015002;28;20040;-71
2022/09/01 00:53:25;;;;;;;0.40;0.40;;;19.20;58.50;;;;;;5014207;28;20033;-70
2022/09/01 00:55:51;;;;;;;0.40;0.40;;;19.10;58.50;;;;;;5032037;28;20091;-70
2022/09/01 00:58:17;;;;;;;0.93;0.70;;;19.10;58.50;;;;;;5032386;28;20045;-71
2022/09/01 01:00:45;;;;;;;0.88;0.65;;;19.10;58.40;;;;;;5032704;28;20028;-71
2022/09/01 01:03:12;;;;;;;0.43;0.35;;;19.10;58.50;;;;;;5031804;28;20036;-65
2022/09/01 01:05:45;;;;;;;1.05;0.60;;;19.00;58.50;;;;;;5032389;28;20105;-66
2022/09/01 01:08:11;;;;;;;0.40;0.40;;;19.00;58.50;;;;;;5013928;28;20032;-66
2022/09/01 01:10:41;;;;;;;0.30;0.25;;;19.00;58.50;;;;;;5014319;28;20034;-66
2022/09/01 01:13:16;;;;;;;0.40;0.35;;;19.00;58.50;;;;;;5032155;28;20095;-66
2022/09/01 01:15:42;;;;;;;0.82;0.68;;;19.00;59.10;;;;;;5029820;28;20022;-66
2022/09/01 01:18:13;;;;;;;1.20;0.55;;;19.00;58.50;;;;;;5014212;28;20121;-67
2022/09/01 01:23:27;;;;;;;1.17;0.30;;;19.00;58.10;;;;;;5016773;28;20053;-66
2022/09/01 01:25:56;;;;;;;0.88;0.50;;;19.00;57.90;;;;;;5011612;28;20076;-66
2022/09/01 01:28:34;;;;;;;0.35;0.30;;;19.00;57.80;;;;;;4994481;28;20564;-67
2022/09/01 01:31:10;;;;;;;0.40;0.40;;;19.10;57.70;;;;;;4999081;28;20037;-67
2022/09/01 01:33:43;;;;;;;0.73;0.73;;;19.00;57.50;;;;;;5012291;28;20029;-67
2022/09/01 01:36:12;;;;;;;0.52;0.52;;;19.00;57.40;;;;;;5007188;28;20041;-67
2022/09/01 01:38:41;;;;;;;0.60;0.60;;;19.10;57.30;;;;;;4993834;28;20551;-67
2022/09/01 01:41:08;;;;;;;0.50;0.50;;;19.10;57.10;;;;;;5009926;28;20047;-67
2022/09/01 01:43:34;;;;;;;1.00;0.50;;;19.10;56.90;;;;;;5011950;28;20397;-70
2022/09/01 01:46:01;;;;;;;0.20;0.20;;;19.20;56.70;;;;;;4977844;28;20173;-68
2022/09/01 01:48:28;;;;;;;0.30;0.30;;;19.20;56.20;;;;;;5022589;28;20037;-68
2022/09/01 01:50:58;;;;;;;0.45;0.45;;;19.30;56.10;;;;;;4994169;28;20501;-70
2022/09/01 01:53:24;;;;;;;0.30;0.30;;;19.30;55.80;;;;;;5011222;28;20113;-67
2022/09/01 01:55:50;;;;;;;0.40;0.40;;;19.40;55.60;;;;;;4993660;28;20164;-67
2022/09/01 01:58:18;;;;;;;1.02;0.38;;;19.40;55.40;;;;;;4997479;28;20393;-72
2022/09/01 02:00:46;;;;;;;0.38;0.38;;;19.40;55.20;;;;;;5011602;28;20018;-72
2022/09/01 02:03:17;;;;;;;0.28;0.28;;;19.40;55.00;;;;;;5011248;28;20030;-72
2022/09/01 02:05:44;;;;;;;0.38;0.30;;;19.40;54.90;;;;;;5011472;28;20026;-71
2022/09/01 02:08:10;;;;;;;0.43;0.40;;;19.40;54.70;;;;;;4993122;28;20203;-66
2022/09/01 02:10:41;;;;;;;0.60;0.38;;;19.40;54.60;;;;;;5011189;28;20070;-67
2022/09/01 02:13:14;;;;;;;0.30;0.30;;;19.50;54.50;;;;;;5011315;28;20030;-67
2022/09/01 02:15:44;;;;;;;0.20;0.20;;;19.40;54.20;;;;;;5018813;28;20041;-66
2022/09/01 02:18:31;;;;;;;2.60;0.40;;;19.50;54.10;;;;;;5018564;28;20042;-72
2022/09/01 02:20:57;;;;;;;0.30;0.30;;;19.50;54.00;;;;;;4993285;28;20028;-71
2022/09/01 02:23:23;;;;;;;0.38;0.38;;;19.50;54.10;;;;;;5027352;28;20068;-72
2022/09/01 02:25:54;;;;;;;0.50;0.50;;;19.50;54.00;;;;;;5030168;28;20657;-72
2022/09/01 02:28:21;;;;;;;0.30;0.30;;;19.50;54.00;;;;;;5028470;28;20036;-71
2022/09/01 02:30:58;;;;;;;0.30;0.30;;;19.40;54.20;;;;;;5029002;28;20036;-66
2022/09/01 02:33:26;;;;;;;0.40;0.40;;;19.40;54.40;;;;;;5030728;28;20044;-71
2022/09/01 02:35:54;;;;;;;0.63;0.63;;;19.30;54.50;;;;;;5030304;28;20480;-71
2022/09/01 02:38:27;;;;;;;0.47;0.43;;;19.20;55.20;;;;;;5028369;28;20413;-71
2022/09/01 02:40:58;;;;;;;0.28;0.28;;;19.20;54.70;;;;;;5030361;28;20116;-67
2022/09/01 02:43:27;;;;;;;0.40;0.40;;;19.20;54.80;;;;;;5012862;28;20041;-67
2022/09/01 02:45:58;;;;;;;0.20;0.20;;;19.10;54.70;;;;;;5030281;28;20025;-71
2022/09/01 02:48:27;;;;;;;0.22;0.22;;;19.10;54.70;;;;;;5030318;28;20021;-71
2022/09/01 02:50:54;;;;;;;0.50;0.50;;;19.10;54.70;;;;;;5030186;28;20411;-71
2022/09/01 02:53:20;;;;;;;0.93;0.30;;;19.10;54.70;;;;;;5029853;28;20022;-71
2022/09/01 02:55:45;;;;;;;0.82;0.35;;;19.10;54.70;;;;;;5030014;28;20025;-71
2022/09/01 02:58:18;;;;;;;0.40;0.40;;;19.10;54.80;;;;;;5038126;28;20029;-72
2022/09/01 03:00:45;;;;;;;1.23;0.70;;;19.10;54.80;;;;;;5036417;28;20021;-71
2022/09/01 03:03:12;;;;;;;0.40;0.40;;;19.00;54.80;;;;;;5029967;28;20048;-71
2022/09/01 03:05:38;;;;;;;0.40;0.40;;;19.00;54.90;;;;;;5025070;28;20032;-72
2022/09/01 03:08:09;;;;;;;0.50;0.50;;;19.00;55.00;;;;;;5029424;28;20503;-72
2022/09/01 03:10:40;;;;;;;0.30;0.30;;;19.00;55.10;;;;;;5011739;28;20025;-72
2022/09/01 03:13:09;;;;;;;1.23;0.30;;;19.00;55.10;;;;;;5030164;28;20033;-72
2022/09/01 03:15:36;;;;;;;0.32;0.32;;;18.90;55.10;;;;;;5029918;28;20021;-72
2022/09/01 03:18:04;;;;;;;1.45;0.30;;;18.90;55.20;;;;;;5029834;28;20043;-71
2022/09/01 03:20:32;;;;;;;1.85;0.45;;;18.90;55.20;;;;;;5029554;28;20033;-71
2022/09/01 03:23:06;;;;;;;0.50;0.50;;;18.80;55.10;;;;;;5029400;28;20124;-71
2022/09/01 03:25:33;;;;;;;1.17;0.60;;;18.80;55.10;;;;;;5029407;28;20889;-67
2022/09/01 03:28:00;;;;;;;0.68;0.57;;;18.80;55.20;;;;;;5029464;28;20055;-67
2022/09/01 03:30:28;;;;;;;0.82;0.50;;;18.80;55.20;;;;;;5011902;28;20034;-67
2022/09/01 03:32:58;;;;;;;0.57;0.57;;;18.80;55.40;;;;;;5027360;28;20028;-67
2022/09/01 03:35:27;;;;;;;1.23;0.47;;;18.70;56.10;;;;;;5029726;28;20053;-67
2022/09/01 03:37:57;;;;;;;0.40;0.40;;;18.70;55.60;;;;;;5012907;28;20407;-67
2022/09/01 03:40:31;;;;;;;0.75;0.75;;;18.60;55.50;;;;;;5029205;28;20021;-67
2022/09/01 03:43:01;;;;;;;11.05;0.60;;;18.60;55.50;;;;;;5012923;28;20083;-67
2022/09/01 03:45:28;;;;;;;0.20;0.20;;;18.60;55.50;;;;;;5011930;28;20079;-68
2022/09/01 03:47:55;;;;;;;2.58;0.52;;;18.60;55.50;;;;;;5011835;28;20156;-68
2022/09/01 03:50:23;;;;;;;0.45;0.45;;;18.50;55.40;;;;;;5029247;28;20022;-67
2022/09/01 03:52:52;;;;;;;2.15;0.63;;;18.50;55.40;;;;;;5033696;28;20032;-67
2022/09/01 03:55:29;;;;;;;0.88;0.32;;;18.50;55.40;;;;;;5042978;28;20034;-67
2022/09/01 03:58:05;;;;;;;0.28;0.28;;;18.50;56.00;;;;;;5029834;28;20548;-67
2022/09/01 04:00:34;;;;;;;0.70;0.70;;;18.50;55.40;;;;;;5033671;28;20108;-67
2022/09/01 04:03:03;;;;;;;3.15;1.10;;;18.50;55.50;;;;;;5016259;28;20492;-72
2022/09/01 04:05:32;;;;;;;0.55;0.40;;;18.40;55.50;;;;;;5035419;28;20018;-71
2022/09/01 04:08:02;;;;;;;0.52;0.32;;;18.50;55.50;;;;;;5033363;28;20044;-71
2022/09/01 04:10:48;;;;;;;0.20;0.20;;;18.50;55.50;;;;;;5032983;28;20022;-71
2022/09/01 04:13:20;;;;;;;0.40;0.40;;;18.40;55.40;;;;;;5016505;28;20029;-72
2022/09/01 04:15:47;;;;;;;0.35;0.35;;;18.40;55.40;;;;;;5033426;28;20124;-71
2022/09/01 04:18:20;;;;;;;1.58;0.68;;;18.40;55.50;;;;;;5038987;28;20029;-71
2022/09/01 04:20:56;;;;;;;0.20;0.20;;;18.40;55.50;;;;;;5032949;28;20025;-71
2022/09/01 04:23:32;;;;;;;0.30;0.30;;;18.40;55.50;;;;;;5031185;28;20042;-71
2022/09/01 04:26:08;;;;;;;2.50;0.65;;;18.40;55.50;;;;;;5013378;28;20021;-72
2022/09/01 04:28:37;;;;;;;0.55;0.45;;;18.30;55.60;;;;;;5025328;28;20022;-71
2022/09/01 04:31:07;;;;;;;0.60;0.45;;;18.30;55.60;;;;;;5039081;28;20085;-72
2022/09/01 04:33:38;;;;;;;1.40;0.50;;;18.30;55.70;;;;;;5032186;28;20075;-71
2022/09/01 04:36:24;;;;;;;0.35;0.25;;;18.30;55.70;;;;;;5034420;28;20072;-72
2022/09/01 04:38:55;;;;;;;0.43;0.43;;;18.20;55.60;;;;;;5032203;28;20021;-71
2022/09/01 04:41:30;;;;;;;0.70;0.40;;;18.20;55.60;;;;;;5032180;28;20024;-71
2022/09/01 04:43:58;;;;;;;0.30;0.30;;;18.20;55.70;;;;;;5014893;28;20124;-71
2022/09/01 04:46:28;;;;;;;0.40;0.40;;;18.10;55.70;;;;;;5032618;28;20045;-72
2022/09/01 04:48:56;;;;;;;1.98;0.85;;;18.10;55.80;;;;;;5014802;28;20084;-67
2022/09/01 04:51:22;;;;;;;0.38;0.38;;;18.00;55.80;;;;;;5032434;28;20029;-67
2022/09/01 04:53:49;;;;;;;0.40;0.40;;;18.00;55.90;;;;;;5014465;28;20099;-67
2022/09/01 04:56:18;;;;;;;0.40;0.40;;;18.00;55.90;;;;;;5032197;28;20377;-67
2022/09/01 04:58:45;;;;;;;0.80;0.60;;;18.00;56.00;;;;;;5031040;28;20036;-67
2022/09/01 05:01:16;;;;;;;1.15;0.57;;;17.90;56.00;;;;;;5014526;28;20032;-67
2022/09/01 05:03:44;;;;;;;0.60;0.60;;;17.90;56.10;;;;;;5032451;28;20485;-67
2022/09/01 05:06:18;;;;;;;0.40;0.40;;;17.90;56.10;;;;;;5014709;28;20026;-67
2022/09/01 05:08:45;;;;;;;0.50;0.50;;;17.90;56.20;;;;;;5033714;28;20033;-68
2022/09/01 05:11:15;;;;;;;1.65;0.88;;;17.90;56.20;;;;;;5022933;28;20037;-68
2022/09/01 05:13:44;;;;;;;1.35;0.65;;;17.90;56.20;;;;;;5034841;28;20471;-67
2022/09/01 05:16:11;;;;;;;0.32;0.32;;;17.90;56.30;;;;;;5040030;28;20062;-67
2022/09/01 05:18:46;;;;;;;0.80;0.40;;;17.90;56.30;;;;;;5029946;28;20033;-71
2022/09/01 05:21:15;;;;;;;1.13;0.80;;;17.90;56.30;;;;;;5032330;28;20041;-71
2022/09/01 05:23:42;;;;;;;0.50;0.40;;;17.80;56.20;;;;;;5031580;28;20041;-71
2022/09/01 05:26:17;;;;;;;0.93;0.85;;;17.80;56.20;;;;;;5013665;28;20092;-67
2022/09/01 05:28:48;;;;;;;0.30;0.30;;;17.80;56.20;;;;;;5032094;28;20535;-68
2022/09/01 05:31:18;;;;;;;0.40;0.40;;;17.80;56.20;;;;;;5034489;28;20030;-66
2022/09/01 05:33:47;;;;;;;0.95;0.40;;;17.80;56.30;;;;;;5019340;28;20084;-66
2022/09/01 05:36:16;;;;;;;0.45;0.40;;;17.80;56.30;;;;;;5029681;28;20033;-67
2022/09/01 05:38:43;;;;;;;0.32;0.30;;;17.80;56.30;;;;;;5031631;28;20038;-67
2022/09/01 05:41:13;;;;;;;1.75;0.95;;;17.80;56.30;;;;;;5030982;28;20108;-66
2022/09/01 05:43:45;;;;;;;0.43;0.43;;;17.80;56.30;;;;;;5032287;28;20017;-67
2022/09/01 05:46:16;;;;;;;0.43;0.38;;;17.80;56.30;;;;;;5017267;28;20025;-67
2022/09/01 05:48:48;;;;;;;0.60;0.60;;;17.80;56.30;;;;;;5039079;28;20033;-67
2022/09/01 05:51:18;;;;;;;1.38;0.50;;;17.80;56.30;;;;;;5036813;28;20079;-67
2022/09/01 05:53:45;;;;;;;0.50;0.43;;;17.80;56.30;;;;;;5032966;28;20017;-66
2022/09/01 05:56:13;;;;;;;0.38;0.38;;;17.80;56.30;;;;;;5031401;28;20061;-66
2022/09/01 05:58:41;;;;;;;0.55;0.55;;;17.80;56.20;;;;;;5031795;28;20051;-67
2022/09/01 06:01:09;;;;;;;0.20;0.20;;;17.80;56.80;;;;;;5031155;28;20990;-67
2022/09/01 06:03:36;;;;;;;0.30;0.30;;;17.80;56.20;;;;;;5031299;28;20478;-66
2022/09/01 06:06:08;;;;;;;1.00;0.40;;;17.80;56.20;;;;;;5031247;28;20392;-66
2022/09/01 06:08:35;;;;;;;0.40;0.40;;;17.80;56.20;;;;;;5038372;28;20032;-67
2022/09/01 06:11:02;;;;;;;0.63;0.63;;;17.80;56.10;;;;;;5029238;28;20048;-67
2022/09/01 06:13:28;;;;;;;0.52;0.52;;;17.90;56.00;;;;;;4994612;28;20461;-67
2022/09/01 06:15:57;;;;;;;0.35;0.35;;;17.90;55.90;;;;;;5031032;28;20025;-67
2022/09/01 06:18:23;;;;;;;0.47;0.47;;;17.90;55.80;;;;;;5030827;28;20057;-67
2022/09/01 06:20:49;;;;;;;1.73;0.85;;;17.90;55.70;;;;;;5030383;28;20025;-66
2022/09/01 06:23:16;;;;;;;0.30;0.30;;;18.00;55.70;;;;;;5028832;28;20481;-66
2022/09/01 06:25:45;;;;;;;0.30;0.30;;;18.00;55.50;;;;;;4994435;28;20014;-67
2022/09/01 06:28:14;;;;;;;0.55;0.47;;;18.10;55.40;;;;;;5010672;28;20033;-67
2022/09/01 06:30:43;;;;;;;1.35;0.90;;;18.20;55.20;;;;;;5010916;28;20469;-67
2022/09/01 06:33:12;;;;;;;1.15;0.55;;;18.30;55.10;;;;;;5010736;28;20034;-67
2022/09/01 06:35:40;;;;;;;0.30;0.30;;;18.40;54.80;;;;;;5010561;28;20045;-71
2022/09/01 06:38:08;;;;;;;0.60;0.60;;;18.50;54.60;;;;;;5007900;28;20127;-71
2022/09/01 06:40:34;;;;;;;0.40;0.40;;;18.70;54.40;;;;;;5009659;28;20026;-71
2022/09/01 06:43:06;;;;;;;0.30;0.30;;;18.80;54.20;;;;;;4992969;28;20124;-71
2022/09/01 06:45:38;;;;;;;1.02;0.85;;;18.90;53.90;;;;;;5009355;28;20017;-71
2022/09/01 06:48:03;;;;;;;0.30;0.30;;;19.00;53.70;;;;;;4993090;28;20045;-66
2022/09/01 06:50:29;;;;;;;0.60;0.50;;;19.10;53.60;;;;;;4976804;28;20038;-67
2022/09/01 06:53:07;;;;;;;0.60;0.60;;;19.20;53.40;;;;;;5019380;28;20036;-66
2022/09/01 06:55:36;;;;;;;0.50;0.50;;;19.30;53.40;;;;;;5010191;28;20133;-66
2022/09/01 06:58:06;;;;;;;0.68;0.45;;;19.40;53.10;;;;;;5024129;28;20048;-66
2022/09/01 07:00:38;;;;;;;1.40;0.40;;;19.50;53.10;;;;;;5010350;28;20028;-66
2022/09/01 07:03:08;;;;;;;0.50;0.40;;;19.60;53.00;;;;;;5010317;28;20026;-70
2022/09/01 07:05:37;;;;;;;0.68;0.50;;;19.70;52.70;;;;;;5013335;28;20038;-70
2022/09/01 07:08:06;;;;;;;0.80;0.80;;;19.80;52.60;;;;;;5009926;28;20489;-71
2022/09/01 07:10:32;;;;;;;0.75;0.47;;;19.90;52.30;;;;;;5020319;28;20112;-70
2022/09/01 07:12:58;;;;;;;0.82;0.40;;;20.00;52.30;;;;;;5025408;28;20452;-70
2022/09/01 07:15:26;;;;;;;0.38;0.38;;;20.10;52.20;;;;;;4994778;28;20030;-66
2022/09/01 07:17:54;;;;;;;0.75;0.50;;;20.20;52.10;;;;;;4990936;28;20038;-66
2022/09/01 07:20:24;;;;;;;0.93;0.52;;;20.30;51.90;;;;;;4992258;28;20034;-66
2022/09/01 07:22:51;;;;;;;1.05;0.55;;;20.40;51.80;;;;;;5009670;28;20386;-66
2022/09/01 07:25:19;;;;;;;1.15;0.50;;;20.50;51.70;;;;;;5009718;28;20369;-66
2022/09/01 07:27:48;;;;;;;0.32;0.30;;;20.60;51.60;;;;;;5008753;28;20022;-67
2022/09/01 07:30:18;;;;;;;0.50;0.50;;;20.60;51.40;;;;;;5014533;28;20477;-66
2022/09/01 07:32:45;;;;;;;0.63;0.63;;;20.60;51.30;;;;;;4989701;28;20037;-66
2022/09/01 07:35:17;;;;;;;0.30;0.30;;;20.70;51.10;;;;;;5009397;28;20434;-71
2022/09/01 07:37:43;;;;;;;0.85;0.30;;;20.70;51.00;;;;;;5009854;28;20026;-70
2022/09/01 07:40:18;;;;;;;0.35;0.35;;;20.80;50.90;;;;;;5009490;28;20129;-70
2022/09/01 07:42:46;;;;;;;0.40;0.40;;;20.80;50.70;;;;;;5009910;28;20101;-70
2022/09/01 07:45:13;;;;;;;0.60;0.60;;;20.90;50.70;;;;;;4991749;28;20121;-70
2022/09/01 07:47:39;;;;;;;0.47;0.47;;;20.90;50.70;;;;;;5009225;28;20121;-70
2022/09/01 07:50:07;;;;;;;0.30;0.30;;;21.00;50.50;;;;;;4992088;28;20113;-66
2022/09/01 07:52:42;;;;;;;0.47;0.47;;;21.00;50.50;;;;;;4985464;28;20406;-66
2022/09/01 07:55:15;;;;;;;1.55;0.70;;;21.10;50.50;;;;;;4990599;28;20048;-66
2022/09/01 07:57:44;;;;;;;0.73;0.73;;;21.20;50.50;;;;;;5018091;28;20034;-71
2022/09/01 08:00:14;;;;;;;0.65;0.50;;;21.30;50.40;;;;;;5015489;28;20030;-71
2022/09/01 08:02:42;;;;;;;1.95;0.70;;;21.30;50.20;;;;;;5008145;28;20113;-71
2022/09/01 08:05:12;;;;;;;0.52;0.38;;;21.40;50.10;;;;;;5008732;28;20052;-70
2022/09/01 08:07:38;;;;;;;0.30;0.30;;;21.40;50.00;;;;;;5008109;28;20052;-66
2022/09/01 08:10:05;;;;;;;2.42;0.60;;;21.50;49.90;;;;;;4990667;28;20417;-66
2022/09/01 08:12:31;;;;;;;0.40;0.38;;;21.50;49.90;;;;;;5009249;28;20034;-66
2022/09/01 08:14:57;;;;;;;0.50;0.50;;;21.60;49.80;;;;;;5009296;28;20565;-71
2022/09/01 08:17:22;;;;;;;0.50;0.43;;;21.70;49.60;;;;;;5009337;28;20092;-71
2022/09/01 08:19:48;;;;;;;0.43;0.43;;;21.80;49.60;;;;;;4988968;28;20041;-66
2022/09/01 08:22:15;;;;;;;2.45;0.40;;;21.80;49.40;;;;;;4997358;28;20052;-66
2022/09/01 08:24:41;;;;;;;0.32;0.32;;;21.90;49.20;;;;;;5014471;28;20021;-66
2022/09/01 08:27:07;;;;;;;0.80;0.57;;;22.00;48.80;;;;;;5004506;28;20079;-66
2022/09/01 08:29:33;;;;;;;0.38;0.38;;;22.10;48.80;;;;;;5008840;28;20503;-66
2022/09/01 08:31:59;;;;;;;0.50;0.50;;;22.10;48.50;;;;;;5027855;28;20535;-66
2022/09/01 08:34:26;;;;;;;0.82;0.40;;;22.20;48.40;;;;;;5038591;28;20045;-66
2022/09/01 08:36:51;;;;;;;0.57;0.50;;;22.30;48.40;;;;;;5026382;28;20500;-66
2022/09/01 08:39:18;;;;;;;0.47;0.40;;;22.40;49.00;;;;;;5006956;28;20538;-66
2022/09/01 08:41:54;;;;;;;0.63;0.60;;;22.50;48.30;;;;;;5007076;28;20033;-66
2022/09/01 08:44:51;;;;;;;0.57;0.30;;;22.60;48.10;;;;;;5006630;28;20040;-66
2022/09/01 08:47:18;;;;;;;0.50;0.50;;;22.80;47.80;;;;;;5028476;28;20357;-66
2022/09/01 08:49:45;;;;;;;0.38;0.30;;;22.90;47.50;;;;;;5038822;28;20017;-66
2022/09/01 08:52:17;;;;;;;1.20;0.57;;;23.00;47.10;;;;;;5013121;28;20117;-66
2022/09/01 08:54:54;;;;;;;2.65;0.65;;;23.10;46.80;;;;;;5029137;28;20083;-66
2022/09/01 08:57:28;;;;;;;1.98;0.43;;;23.20;46.30;;;;;;5026223;28;20057;-66
2022/09/01 08:59:53;;;;;;;0.38;0.38;;;23.30;46.50;;;;;;5031936;28;20033;-71
2022/09/01 09:02:28;;;;;;;7.00;1.67;;;23.30;46.40;;;;;;5012817;28;20037;-71
2022/09/01 09:05:38;;;;;;;0.50;0.40;;;23.50;46.10;;;;;;5030821;28;20044;-71
2022/09/01 09:08:40;;;;;;;0.30;0.30;;;23.70;45.80;;;;;;4985006;28;20068;-71
2022/09/01 09:11:39;;;;;;;0.60;0.47;;;23.80;45.00;;;;;;4985830;28;20045;-66
2022/09/01 09:14:13;;;;;;;0.50;0.50;;;23.90;44.90;;;;;;5028014;28;20033;-68
2022/09/01 09:16:41;;;;;;;0.50;0.35;;;24.00;44.60;;;;;;5034116;28;20060;-66
2022/09/01 09:19:20;;;;;;;0.40;0.40;;;24.10;44.40;;;;;;5028982;28;20037;-66
2022/09/01 09:21:49;;;;;;;0.30;0.20;;;24.20;44.00;;;;;;5009681;28;20037;-66
2022/09/01 09:24:49;;;;;;;0.30;0.30;;;24.40;44.10;;;;;;5007942;28;20076;-66
2022/09/01 09:27:24;;;;;;;1.35;0.38;;;24.50;43.60;;;;;;5012801;28;20035;-70
2022/09/01 09:29:52;;;;;;;0.40;0.40;;;24.60;43.30;;;;;;5008032;28;20025;-72
2022/09/01 09:32:20;;;;;;;0.40;0.40;;;24.70;42.90;;;;;;5010529;28;20477;-71
2022/09/01 09:34:46;;;;;;;0.40;0.40;;;24.80;42.30;;;;;;5008399;28;20101;-67
2022/09/01 09:37:29;;;;;;;0.57;0.57;;;24.90;42.20;;;;;;5010300;28;20049;-71
2022/09/01 09:40:13;;;;;;;0.20;0.20;;;25.00;42.10;;;;;;5009584;28;20374;-67
2022/09/01 09:42:53;;;;;;;0.50;0.50;;;25.20;41.90;;;;;;5007799;28;20021;-67
2022/09/01 09:45:29;;;;;;;0.30;0.30;;;25.40;41.30;;;;;;5007877;28;20374;-71
2022/09/01 09:47:56;;;;;;;0.20;0.20;;;25.50;41.10;;;;;;4990710;28;20077;-71
2022/09/01 09:50:36;;;;;;;0.60;0.60;;;25.60;41.00;;;;;;4994490;28;20560;-71
2022/09/01 09:53:28;;;;;;;0.50;0.50;;;25.80;40.60;;;;;;5008347;28;20026;-72
2022/09/01 09:56:08;;;;;;;0.40;0.40;;;25.90;39.80;;;;;;5006190;28;20065;-70
2022/09/01 09:58:40;;;;;;;0.47;0.40;;;25.90;39.00;;;;;;4990764;28;20034;-71
2022/09/01 10:01:24;;;;;;;0.50;0.50;;;26.00;39.00;;;;;;4990016;28;20116;-71
2022/09/01 10:04:02;;;;;;;0.45;0.45;;;26.10;39.00;;;;;;5007094;28;20018;-71
2022/09/01 10:06:40;;;;;;;0.60;0.60;;;26.20;38.90;;;;;;5004489;28;20076;-72
2022/09/01 10:09:13;;;;;;;0.50;0.47;;;26.40;38.70;;;;;;4994863;28;20037;-71
2022/09/01 10:11:46;;;;;;;0.40;0.40;;;26.40;38.50;;;;;;5013081;28;20471;-72
2022/09/01 10:14:19;;;;;;;0.22;0.22;;;26.50;38.30;;;;;;5006882;28;20042;-67
2022/09/01 10:16:49;;;;;;;0.30;0.30;;;26.60;37.20;;;;;;5006984;28;20104;-72
2022/09/01 10:19:15;;;;;;;0.30;0.30;;;26.60;36.60;;;;;;4990563;28;20032;-71
2022/09/01 10:21:43;;;;;;;0.30;0.30;;;26.70;36.70;;;;;;5010910;28;20042;-67
2022/09/01 10:24:16;;;;;;;0.45;0.32;;;26.70;36.70;;;;;;5024755;28;20025;-66
2022/09/01 10:26:46;;;;;;;0.38;0.38;;;26.80;36.00;;;;;;5033865;28;20112;-67
2022/09/01 10:29:22;;;;;;;0.55;0.50;;;26.90;36.10;;;;;;5021323;28;20045;-67
2022/09/01 10:31:49;;;;;;;0.30;0.30;;;27.10;35.90;;;;;;5020341;28;20400;-67
2022/09/01 10:34:18;;;;;;;0.32;0.32;;;27.20;35.80;;;;;;5026183;28;20029;-72
2022/09/01 10:36:45;;;;;;;0.30;0.30;;;27.30;35.90;;;;;;5025314;28;20030;-72
2022/09/01 10:39:17;;;;;;;0.30;0.30;;;27.40;35.60;;;;;;5023777;28;20026;-67
2022/09/01 10:41:56;;;;;;;0.38;0.38;;;27.40;35.30;;;;;;5023190;28;20025;-67
2022/09/01 10:44:24;;;;;;;0.30;0.30;;;27.60;35.20;;;;;;5020132;28;20037;-67
2022/09/01 10:46:51;;;;;;;0.90;0.30;;;27.70;35.20;;;;;;5026428;28;20006;-68
2022/09/01 10:49:28;;;;;;;0.30;0.30;;;27.70;34.90;;;;;;5021600;28;20053;-68
2022/09/01 10:51:55;;;;;;;0.85;0.50;;;27.80;35.10;;;;;;5026523;28;20037;-68
2022/09/01 10:54:39;;;;;;;0.57;0.50;;;27.90;35.00;;;;;;5024412;28;20081;-73
2022/09/01 10:57:20;;;;;;;0.30;0.30;;;28.00;34.90;;;;;;5023284;28;20583;-67
2022/09/01 10:59:46;;;;;;;0.82;0.47;;;28.10;34.80;;;;;;5025889;28;20491;-66
2022/09/01 11:02:16;;;;;;;0.55;0.50;;;28.30;34.70;;;;;;5027276;28;20029;-67
2022/09/01 11:04:44;;;;;;;0.22;0.22;;;28.40;34.50;;;;;;5028717;28;20119;-67
2022/09/01 11:07:22;;;;;;;0.65;0.30;;;28.50;34.50;;;;;;5026458;28;20029;-67
2022/09/01 11:10:20;;;;;;;2.03;0.75;;;28.60;34.00;;;;;;5025725;28;20505;-67
2022/09/01 11:13:24;;;;;;;0.30;0.30;;;28.60;33.90;;;;;;4999091;28;20080;-71
2022/09/01 11:15:50;;;;;;;0.65;0.40;;;28.80;33.90;;;;;;5028189;28;20038;-67
2022/09/01 11:18:29;;;;;;;0.50;0.40;;;29.00;33.80;;;;;;5018999;28;20104;-67
2022/09/01 11:21:15;;;;;;;0.73;0.40;;;29.00;33.30;;;;;;5027428;28;20452;-68
2022/09/01 11:23:40;;;;;;;1.80;0.50;;;29.10;33.50;;;;;;5045536;28;20049;-66
2022/09/01 11:26:31;;;;;;;1.02;0.60;;;29.40;33.60;;;;;;5046411;28;20053;-71
2022/09/01 11:28:57;;;;;;;0.60;0.60;;;29.60;32.30;;;;;;5047824;28;20534;-72
2022/09/01 11:31:29;;;;;;;1.65;0.77;;;29.60;32.60;;;;;;5036986;28;20057;-71
2022/09/01 11:33:55;;;;;;;;;;;29.60;31.80;;;;;;5049633;28;20115;-71
2022/09/01 11:36:43;;;;;;;0.40;0.40;;;29.60;32.30;;;;;;5044777;28;20008;-72
2022/09/01 11:39:18;;;;;;;0.38;0.38;;;29.80;32.40;;;;;;5046409;28;20025;-72
2022/09/01 11:42:05;;;;;;;0.30;0.30;;;30.00;32.60;;;;;;5028710;28;20029;-72
2022/09/01 11:44:34;;;;;;;0.60;0.50;;;30.10;32.20;;;;;;5043320;28;20072;-72
2022/09/01 11:47:06;;;;;;;0.50;0.50;;;30.10;32.50;;;;;;5046258;28;20048;-72
2022/09/01 11:49:46;;;;;;;0.52;0.45;;;30.20;32.10;;;;;;5051718;28;20037;-72
2022/09/01 11:52:18;;;;;;;0.40;0.40;;;30.30;32.80;;;;;;5025439;28;20016;-72
2022/09/01 11:54:47;;;;;;;0.50;0.50;;;30.50;31.90;;;;;;5045587;28;20082;-67
2022/09/01 11:57:30;;;;;;;0.63;0.57;;;30.50;31.70;;;;;;5057330;28;20040;-72
2022/09/01 11:59:58;;;;;;;0.22;0.22;;;30.70;31.70;;;;;;5029371;28;20040;-67
2022/09/01 12:02:28;;;;;;;0.40;0.40;;;30.80;31.20;;;;;;5048394;28;20025;-67
2022/09/01 12:04:55;;;;;;;0.40;0.40;;;30.80;31.40;;;;;;5028766;28;20033;-71
2022/09/01 12:07:44;;;;;;;0.30;0.30;;;30.90;31.00;;;;;;5045221;28;20530;-72
2022/09/01 12:10:34;;;;;;;0.43;0.43;;;31.00;31.00;;;;;;5049019;28;20028;-72
2022/09/01 12:13:21;;;;;;;0.68;0.40;;;31.10;31.20;;;;;;5033760;28;20037;-68
2022/09/01 12:15:59;;;;;;;0.40;0.40;;;31.10;30.70;;;;;;5048551;28;20025;-67
2022/09/01 12:18:28;;;;;;;0.30;0.30;;;31.20;31.00;;;;;;5052583;28;20541;-66
2022/09/01 12:20:56;;;;;;;0.40;0.40;;;31.30;31.00;;;;;;5030797;28;20056;-66
2022/09/01 12:23:48;;;;;;;0.40;0.40;;;31.40;31.00;;;;;;5057756;28;20053;-66
2022/09/01 12:26:18;;;;;;;0.40;0.40;;;31.40;30.70;;;;;;5044930;28;20051;-67
2022/09/01 12:28:48;;;;;;;0.95;0.50;;;31.50;30.70;;;;;;5051216;28;20021;-67
2022/09/01 12:31:17;;;;;;;1.20;0.70;;;31.50;30.70;;;;;;5054510;28;20029;-67
2022/09/01 12:33:44;;;;;;;1.33;0.75;;;31.70;30.70;;;;;;5031726;28;20021;-68
2022/09/01 12:36:26;;;;;;;0.40;0.40;;;31.70;30.70;;;;;;5049368;28;20048;-67
2022/09/01 12:39:16;;;;;;;0.40;0.40;;;31.70;30.60;;;;;;5046937;28;20060;-66
2022/09/01 12:41:43;;;;;;;0.50;0.50;;;31.80;30.50;;;;;;5051364;28;20032;-67
2022/09/01 12:44:54;;;;;;;0.50;0.50;;;31.80;30.60;;;;;;5051865;28;20028;-71
2022/09/01 12:47:32;;;;;;;0.57;0.47;;;31.90;30.30;;;;;;5046044;28;20458;-71
2022/09/01 12:50:28;;;;;;;0.40;0.40;;;31.90;30.20;;;;;;5050078;28;20029;-71
2022/09/01 12:53:01;;;;;;;0.40;0.40;;;32.00;30.50;;;;;;5037135;28;20044;-71
2022/09/01 12:55:30;;;;;;;0.40;0.40;;;32.10;30.00;;;;;;5048800;28;20047;-72
2022/09/01 12:57:59;;;;;;;0.40;0.40;;;32.20;29.80;;;;;;5046342;28;20499;-71
2022/09/01 13:00:30;;;;;;;0.50;0.50;;;32.20;29.60;;;;;;5054596;28;20455;-66
2022/09/01 13:03:02;;;;;;;0.57;0.45;;;32.30;29.70;;;;;;5034986;28;20013;-67
2022/09/01 13:05:32;;;;;;;;;;;32.30;29.40;;;;;;5050777;28;20036;-67
2022/09/01 13:08:05;;;;;;;0.68;0.35;;;32.30;29.20;;;;;;5036563;28;19909;-67
2022/09/01 13:10:55;;;;;;;0.50;0.50;;;32.30;29.40;;;;;;5054636;28;20033;-67
2022/09/01 13:13:23;;;;;;;0.40;0.40;;;32.30;29.40;;;;;;5032673;28;20025;-73